createdAt,value
2017-08-12T00:00:32.390Z,22.5
2017-08-12T00:01:40.478Z,22.5
2017-08-12T00:02:48.564Z,22.5
2017-08-12T00:03:56.650Z,22.5
2017-08-12T00:05:04.740Z,22.5
2017-08-12T00:06:12.830Z,22.5
2017-08-12T00:07:20.917Z,22.6
2017-08-12T00:08:29.008Z,22.5
2017-08-12T00:09:37.092Z,22.5
2017-08-12T00:10:45.186Z,22.5
2017-08-12T00:11:53.274Z,22.5
2017-08-12T00:13:01.356Z,22.5
2017-08-12T00:14:09.444Z,22.5
2017-08-12T00:15:17.536Z,22.4
2017-08-12T00:16:25.621Z,22.6
2017-08-12T00:17:33.747Z,22.5
2017-08-12T00:18:41.797Z,22.5
2017-08-12T00:19:49.886Z,22.6
2017-08-12T00:20:57.973Z,22.5
2017-08-12T00:22:06.070Z,22.4
2017-08-12T00:23:14.149Z,22.5
2017-08-12T00:24:22.238Z,22.5
2017-08-12T00:25:30.331Z,22.5
2017-08-12T00:26:38.415Z,22.5
2017-08-12T00:27:46.602Z,22.4
2017-08-12T00:28:54.591Z,22.5
2017-08-12T00:30:02.682Z,22.4
2017-08-12T00:31:10.770Z,22.4
2017-08-12T00:32:18.855Z,22.4
2017-08-12T00:33:26.945Z,22.5
2017-08-12T00:34:35.032Z,22.5
2017-08-12T00:35:43.128Z,22.5
2017-08-12T00:36:51.214Z,22.5
2017-08-12T00:37:59.299Z,22.4
2017-08-12T00:39:07.387Z,22.4
2017-08-12T00:40:15.476Z,22.4
2017-08-12T00:41:23.562Z,22.4
2017-08-12T00:42:31.650Z,22.5
2017-08-12T00:43:39.740Z,22.5
2017-08-12T00:44:47.828Z,22.5
2017-08-12T00:45:55.915Z,22.4
2017-08-12T00:47:04.003Z,22.4
2017-08-12T00:48:12.092Z,22.4
2017-08-12T00:49:20.182Z,22.4
2017-08-12T00:50:28.269Z,22.4
2017-08-12T00:51:36.360Z,22.4
2017-08-12T00:52:44.451Z,22.4
2017-08-12T00:53:52.536Z,22.4
2017-08-12T00:55:00.621Z,22.4
2017-08-12T00:56:08.718Z,22.4
2017-08-12T00:57:16.806Z,22.4
2017-08-12T00:58:24.892Z,22.3
2017-08-12T00:59:32.980Z,22.4
2017-08-12T01:00:41.068Z,22.4
2017-08-12T01:01:49.156Z,22.4
2017-08-12T01:02:57.246Z,22.4
2017-08-12T01:04:05.338Z,22.4
2017-08-12T01:05:13.424Z,22.4
2017-08-12T01:06:21.510Z,22.4
2017-08-12T01:07:29.599Z,22.4
2017-08-12T01:08:37.688Z,22.4
2017-08-12T01:09:45.773Z,22.4
2017-08-12T01:10:53.870Z,22.4
2017-08-12T01:12:01.950Z,22.4
2017-08-12T01:13:10.044Z,22.4
2017-08-12T01:14:18.128Z,22.4
2017-08-12T01:15:26.216Z,22.4
2017-08-12T01:16:34.305Z,22.3
2017-08-12T01:17:42.393Z,22.4
2017-08-12T01:18:50.485Z,22.4
2017-08-12T01:19:58.570Z,22.4
2017-08-12T01:21:06.663Z,22.3
2017-08-12T01:22:14.750Z,22.4
2017-08-12T01:23:22.839Z,22.3
2017-08-12T01:24:30.928Z,22.3
2017-08-12T01:25:39.018Z,22.2
2017-08-12T01:26:47.105Z,22.3
2017-08-12T01:27:55.195Z,22.3
2017-08-12T01:29:03.281Z,22.3
2017-08-12T01:30:11.379Z,22.3
2017-08-12T01:31:19.455Z,22.3
2017-08-12T01:32:27.545Z,22.2
2017-08-12T01:33:35.632Z,22.3
2017-08-12T01:34:43.721Z,22.3
2017-08-12T01:35:51.810Z,22.3
2017-08-12T01:36:59.899Z,22.3
2017-08-12T01:38:08.021Z,22.3
2017-08-12T01:39:16.074Z,22.2
2017-08-12T01:40:24.162Z,22.3
2017-08-12T01:41:32.250Z,22.3
2017-08-12T01:42:40.342Z,22.3
2017-08-12T01:43:48.427Z,22.3
2017-08-12T01:44:56.516Z,22.3
2017-08-12T01:46:04.604Z,22.3
2017-08-12T01:47:12.692Z,22.3
2017-08-12T01:48:20.779Z,22.1
2017-08-12T01:49:28.867Z,22.2
2017-08-12T01:50:36.955Z,22.3
2017-08-12T01:51:45.046Z,22.2
2017-08-12T01:52:53.132Z,22.3
2017-08-12T01:54:01.220Z,22.2
2017-08-12T01:55:09.306Z,22.1
2017-08-12T01:56:17.397Z,22.2
2017-08-12T01:57:25.483Z,22.3
2017-08-12T01:58:33.573Z,22.2
2017-08-12T01:59:41.659Z,22.2
2017-08-12T02:00:49.755Z,22.2
2017-08-12T02:01:57.835Z,22.3
2017-08-12T02:03:05.926Z,22.2
2017-08-12T02:04:14.019Z,22.3
2017-08-12T02:05:22.099Z,22.2
2017-08-12T02:06:30.190Z,22.2
2017-08-12T02:07:38.277Z,22.2
2017-08-12T02:08:46.365Z,22.1
2017-08-12T02:09:54.453Z,22.2
2017-08-12T02:11:02.540Z,22.2
2017-08-12T02:12:10.631Z,22.2
2017-08-12T02:13:18.719Z,22.2
2017-08-12T02:14:26.812Z,22.2
2017-08-12T02:15:34.894Z,22.1
2017-08-12T02:16:42.982Z,22.2
2017-08-12T02:17:51.071Z,22.1
2017-08-12T02:18:59.158Z,22.1
2017-08-12T02:20:07.260Z,22.1
2017-08-12T02:21:15.344Z,22.1
2017-08-12T02:22:23.429Z,22.1
2017-08-12T02:23:31.533Z,22.1
2017-08-12T02:24:39.618Z,22.1
2017-08-12T02:25:47.707Z,22.1
2017-08-12T02:26:55.791Z,22.1
2017-08-12T02:28:03.881Z,22.0
2017-08-12T02:29:11.970Z,22.1
2017-08-12T02:30:20.058Z,22.1
2017-08-12T02:31:28.148Z,22.1
2017-08-12T02:32:36.234Z,22.1
2017-08-12T02:33:44.321Z,22.1
2017-08-12T02:34:52.408Z,22.1
2017-08-12T02:36:00.498Z,22.1
2017-08-12T02:37:08.585Z,22.1
2017-08-12T02:38:16.671Z,22.1
2017-08-12T02:39:24.762Z,22.1
2017-08-12T02:40:32.849Z,22.1
2017-08-12T02:41:40.975Z,22.0
2017-08-12T02:42:49.026Z,22.0
2017-08-12T02:43:57.120Z,22.0
2017-08-12T02:45:05.201Z,22.0
2017-08-12T02:46:13.293Z,22.1
2017-08-12T02:47:21.376Z,22.1
2017-08-12T02:48:29.465Z,22.1
2017-08-12T02:49:37.553Z,22.0
2017-08-12T02:50:45.641Z,21.9
2017-08-12T02:51:53.731Z,22.0
2017-08-12T02:53:01.817Z,22.1
2017-08-12T02:54:09.903Z,21.9
2017-08-12T02:55:17.991Z,22.0
2017-08-12T02:56:26.082Z,22.0
2017-08-12T02:57:34.166Z,21.9
2017-08-12T02:58:42.324Z,22.0
2017-08-12T02:59:50.342Z,22.0
2017-08-12T03:00:58.431Z,21.9
2017-08-12T03:02:06.516Z,22.0
2017-08-12T03:03:14.605Z,22.0
2017-08-12T03:04:22.692Z,21.9
2017-08-12T03:05:30.779Z,21.9
2017-08-12T03:06:38.868Z,21.9
2017-08-12T03:07:46.957Z,21.9
2017-08-12T03:08:55.045Z,21.9
2017-08-12T03:10:03.133Z,21.9
2017-08-12T03:11:11.220Z,22.0
2017-08-12T03:12:19.309Z,21.9
2017-08-12T03:13:27.404Z,21.9
2017-08-12T03:14:35.499Z,21.9
2017-08-12T03:15:43.582Z,21.9
2017-08-12T03:16:51.669Z,21.9
2017-08-12T03:17:59.755Z,21.9
2017-08-12T03:19:07.843Z,21.9
2017-08-12T03:20:15.938Z,21.8
2017-08-12T03:21:24.018Z,21.9
2017-08-12T03:22:32.106Z,21.8
2017-08-12T03:23:40.196Z,21.8
2017-08-12T03:24:48.405Z,21.9
2017-08-12T03:25:56.369Z,21.9
2017-08-12T03:27:04.456Z,21.8
2017-08-12T03:28:12.543Z,21.8
2017-08-12T03:29:20.650Z,21.8
2017-08-12T03:30:28.720Z,21.8
2017-08-12T03:31:36.804Z,21.8
2017-08-12T03:32:44.893Z,21.8
2017-08-12T03:33:52.981Z,21.8
2017-08-12T03:35:01.061Z,21.8
2017-08-12T03:36:09.159Z,21.8
2017-08-12T03:37:17.246Z,21.7
2017-08-12T03:38:25.334Z,21.8
2017-08-12T03:39:33.422Z,21.8
2017-08-12T03:40:41.508Z,21.8
2017-08-12T03:41:49.596Z,21.8
2017-08-12T03:42:57.682Z,21.8
2017-08-12T03:44:05.780Z,21.7
2017-08-12T03:45:13.863Z,21.8
2017-08-12T03:46:21.947Z,21.7
2017-08-12T03:47:30.034Z,21.7
2017-08-12T03:48:38.123Z,21.8
2017-08-12T03:49:46.209Z,21.7
2017-08-12T03:50:54.301Z,21.7
2017-08-12T03:52:02.387Z,21.7
2017-08-12T03:53:10.472Z,21.7
2017-08-12T03:54:18.565Z,21.8
2017-08-12T03:55:26.646Z,21.7
2017-08-12T03:56:34.735Z,21.6
2017-08-12T03:57:42.823Z,21.7
2017-08-12T03:58:50.910Z,21.8
2017-08-12T03:59:59.010Z,21.7
2017-08-12T04:01:07.086Z,21.7
2017-08-12T04:02:15.173Z,21.7
2017-08-12T04:03:23.260Z,21.7
2017-08-12T04:04:31.349Z,21.7
2017-08-12T04:05:39.437Z,21.6
2017-08-12T04:06:47.523Z,21.7
2017-08-12T04:07:55.612Z,21.7
2017-08-12T04:09:03.701Z,21.7
2017-08-12T04:10:11.787Z,21.6
2017-08-12T04:11:19.873Z,21.6
2017-08-12T04:12:27.959Z,21.7
2017-08-12T04:13:36.048Z,21.6
2017-08-12T04:14:44.147Z,21.6
2017-08-12T04:15:52.224Z,21.6
2017-08-12T04:17:00.315Z,21.7
2017-08-12T04:18:08.403Z,21.6
2017-08-12T04:19:16.516Z,21.7
2017-08-12T04:20:24.575Z,21.7
2017-08-12T04:21:32.664Z,21.6
2017-08-12T04:22:40.752Z,21.7
2017-08-12T04:23:48.838Z,21.7
2017-08-12T04:24:56.930Z,21.7
2017-08-12T04:26:05.016Z,21.6
2017-08-12T04:27:13.221Z,21.7
2017-08-12T04:28:21.193Z,21.6
2017-08-12T04:29:29.279Z,21.7
2017-08-12T04:30:37.365Z,21.6
2017-08-12T04:31:45.452Z,21.6
2017-08-12T04:32:53.539Z,21.6
2017-08-12T04:34:01.628Z,21.6
2017-08-12T04:35:09.715Z,21.6
2017-08-12T04:36:17.803Z,21.7
2017-08-12T04:37:25.888Z,21.6
2017-08-12T04:38:33.982Z,21.6
2017-08-12T04:39:42.093Z,21.7
2017-08-12T04:40:50.154Z,21.6
2017-08-12T04:41:58.241Z,21.6
2017-08-12T04:43:06.462Z,21.6
2017-08-12T04:44:14.416Z,21.6
2017-08-12T04:45:22.505Z,21.6
2017-08-12T04:46:30.593Z,21.6
2017-08-12T04:47:38.682Z,21.6
2017-08-12T04:48:46.770Z,21.6
2017-08-12T04:49:54.853Z,21.6
2017-08-12T04:51:02.947Z,21.6
2017-08-12T04:52:11.029Z,21.6
2017-08-12T04:53:19.179Z,21.6
2017-08-12T04:54:27.206Z,21.5
2017-08-12T04:55:35.291Z,21.5
2017-08-12T04:56:43.381Z,21.5
2017-08-12T04:57:51.483Z,21.5
2017-08-12T04:58:59.593Z,21.6
2017-08-12T05:00:07.660Z,21.5
2017-08-12T05:01:15.913Z,21.5
2017-08-12T05:02:23.833Z,21.5
2017-08-12T05:03:31.922Z,21.5
2017-08-12T05:04:40.015Z,21.6
2017-08-12T05:05:48.102Z,21.5
2017-08-12T05:06:56.188Z,21.5
2017-08-12T05:08:04.278Z,21.5
2017-08-12T05:09:12.362Z,21.5
2017-08-12T05:10:20.451Z,21.6
2017-08-12T05:11:28.539Z,21.5
2017-08-12T05:12:36.627Z,21.5
2017-08-12T05:13:44.715Z,21.5
2017-08-12T05:14:52.798Z,21.4
2017-08-12T05:16:00.886Z,21.5
2017-08-12T05:17:08.974Z,21.5
2017-08-12T05:18:17.070Z,21.5
2017-08-12T05:19:25.155Z,21.5
2017-08-12T05:20:33.242Z,21.5
2017-08-12T05:21:41.330Z,21.5
2017-08-12T05:22:49.419Z,21.5
2017-08-12T05:23:57.508Z,21.4
2017-08-12T05:25:05.591Z,21.5
2017-08-12T05:26:13.692Z,21.4
2017-08-12T05:27:21.775Z,21.4
2017-08-12T05:28:29.862Z,21.5
2017-08-12T05:29:37.945Z,21.4
2017-08-12T05:30:46.034Z,21.5
2017-08-12T05:31:54.121Z,21.4
2017-08-12T05:33:02.212Z,21.4
2017-08-12T05:34:10.292Z,21.4
2017-08-12T05:35:18.378Z,21.4
2017-08-12T05:36:26.467Z,21.3
2017-08-12T05:37:34.555Z,21.4
2017-08-12T05:38:42.642Z,21.4
2017-08-12T05:39:50.731Z,21.4
2017-08-12T05:40:58.819Z,21.4
2017-08-12T05:42:07.124Z,21.4
2017-08-12T05:43:14.997Z,21.3
2017-08-12T05:44:23.080Z,21.4
2017-08-12T05:45:31.166Z,21.4
2017-08-12T05:46:39.259Z,21.4
2017-08-12T05:47:47.343Z,21.3
2017-08-12T05:48:55.428Z,21.4
2017-08-12T05:50:03.519Z,21.3
2017-08-12T05:51:11.604Z,21.4
2017-08-12T05:52:19.697Z,21.3
2017-08-12T05:53:27.780Z,21.3
2017-08-12T05:54:35.872Z,21.3
2017-08-12T05:55:43.955Z,21.3
2017-08-12T05:56:52.044Z,21.3
2017-08-12T05:58:00.131Z,21.3
2017-08-12T05:59:08.218Z,21.3
2017-08-12T06:00:16.306Z,21.4
2017-08-12T06:01:24.394Z,21.4
2017-08-12T06:02:32.483Z,21.4
2017-08-12T06:03:40.568Z,21.3
2017-08-12T06:04:48.656Z,21.3
2017-08-12T06:05:56.742Z,21.3
2017-08-12T06:07:04.834Z,21.3
2017-08-12T06:08:12.935Z,21.3
2017-08-12T06:09:21.017Z,21.3
2017-08-12T06:10:29.103Z,21.3
2017-08-12T06:11:37.191Z,21.3
2017-08-12T06:12:45.280Z,21.3
2017-08-12T06:13:53.376Z,21.3
2017-08-12T06:15:01.455Z,21.3
2017-08-12T06:16:09.552Z,21.3
2017-08-12T06:17:17.635Z,21.3
2017-08-12T06:18:25.723Z,21.3
2017-08-12T06:19:33.818Z,21.3
2017-08-12T06:20:41.900Z,21.3
2017-08-12T06:21:50.343Z,21.3
2017-08-12T06:22:58.743Z,21.2
2017-08-12T06:24:06.161Z,21.3
2017-08-12T06:25:14.403Z,21.2
2017-08-12T06:26:22.332Z,21.2
2017-08-12T06:27:30.424Z,21.3
2017-08-12T06:28:38.511Z,21.2
2017-08-12T06:29:47.208Z,21.3
2017-08-12T06:30:54.685Z,21.2
2017-08-12T06:32:02.812Z,21.3
2017-08-12T06:33:10.860Z,21.2
2017-08-12T06:34:18.950Z,21.2
2017-08-12T06:35:27.034Z,21.2
2017-08-12T06:36:35.126Z,21.2
2017-08-12T06:37:43.212Z,21.1
2017-08-12T06:38:51.551Z,21.1
2017-08-12T06:39:59.469Z,21.2
2017-08-12T06:41:07.470Z,21.2
2017-08-12T06:42:15.556Z,21.1
2017-08-12T06:43:23.806Z,21.1
2017-08-12T06:44:31.740Z,21.1
2017-08-12T06:45:39.822Z,21.1
2017-08-12T06:46:47.906Z,21.3
2017-08-12T06:47:56.168Z,21.2
2017-08-12T06:49:04.692Z,21.2
2017-08-12T06:50:12.540Z,21.2
2017-08-12T06:51:20.634Z,21.1
2017-08-12T06:52:28.342Z,21.2
2017-08-12T06:53:36.490Z,21.1
2017-08-12T06:54:44.540Z,21.2
2017-08-12T06:55:52.606Z,21.2
2017-08-12T06:57:00.692Z,21.2
2017-08-12T06:58:08.863Z,21.1
2017-08-12T06:59:16.866Z,21.2
2017-08-12T07:00:24.953Z,21.1
2017-08-12T07:01:33.045Z,21.1
2017-08-12T07:02:41.131Z,21.1
2017-08-12T07:03:49.214Z,21.1
2017-08-12T07:04:57.303Z,21.1
2017-08-12T07:06:05.388Z,21.1
2017-08-12T07:07:13.477Z,21.2
2017-08-12T07:08:21.569Z,21.1
2017-08-12T07:09:29.656Z,21.1
2017-08-12T07:10:37.745Z,21.1
2017-08-12T07:11:45.831Z,21.0
2017-08-12T07:12:53.919Z,21.1
2017-08-12T07:14:02.007Z,21.1
2017-08-12T07:15:10.263Z,21.0
2017-08-12T07:16:18.180Z,21.0
2017-08-12T07:17:26.273Z,21.0
2017-08-12T07:18:34.355Z,21.1
2017-08-12T07:19:42.442Z,21.1
2017-08-12T07:20:50.531Z,21.1
2017-08-12T07:21:58.617Z,21.1
2017-08-12T07:23:06.708Z,21.1
2017-08-12T07:24:14.799Z,21.1
2017-08-12T07:25:23.029Z,21.1
2017-08-12T07:26:30.961Z,21.1
2017-08-12T07:27:39.053Z,21.0
2017-08-12T07:28:47.150Z,21.0
2017-08-12T07:29:55.224Z,21.0
2017-08-12T07:31:03.313Z,21.1
2017-08-12T07:32:11.402Z,21.0
2017-08-12T07:33:19.488Z,21.0
2017-08-12T07:34:27.571Z,20.9
2017-08-12T07:35:35.660Z,21.0
2017-08-12T07:36:43.747Z,21.1
2017-08-12T07:37:51.835Z,21.0
2017-08-12T07:38:59.926Z,21.1
2017-08-12T07:40:08.011Z,21.0
2017-08-12T07:41:16.098Z,21.1
2017-08-12T07:42:24.190Z,21.0
2017-08-12T07:43:32.275Z,21.0
2017-08-12T07:44:40.360Z,21.0
2017-08-12T07:45:48.444Z,21.0
2017-08-12T07:46:56.532Z,21.1
2017-08-12T07:48:04.627Z,21.0
2017-08-12T07:49:13.052Z,21.0
2017-08-12T07:50:20.794Z,20.9
2017-08-12T07:51:29.390Z,21.0
2017-08-12T07:52:37.338Z,21.0
2017-08-12T07:53:45.620Z,20.9
2017-08-12T07:54:53.165Z,21.0
2017-08-12T07:56:01.232Z,21.0
2017-08-12T07:57:09.317Z,21.0
2017-08-12T07:58:17.555Z,20.9
2017-08-12T07:59:25.629Z,20.9
2017-08-12T08:00:33.593Z,21.0
2017-08-12T08:01:41.666Z,20.9
2017-08-12T08:02:49.751Z,21.0
2017-08-12T08:03:58.060Z,21.0
2017-08-12T08:05:05.930Z,20.9
2017-08-12T08:06:14.015Z,21.0
2017-08-12T08:07:22.109Z,21.0
2017-08-12T08:08:30.197Z,21.0
2017-08-12T08:09:38.688Z,21.0
2017-08-12T08:10:46.362Z,20.9
2017-08-12T08:11:54.452Z,20.9
2017-08-12T08:13:02.583Z,20.9
2017-08-12T08:14:10.625Z,20.9
2017-08-12T08:15:18.709Z,20.9
2017-08-12T08:16:26.799Z,20.9
2017-08-12T08:17:34.886Z,21.0
2017-08-12T08:18:43.071Z,20.9
2017-08-12T08:19:51.068Z,20.9
2017-08-12T08:20:59.154Z,20.9
2017-08-12T08:22:07.235Z,20.9
2017-08-12T08:23:15.321Z,20.9
2017-08-12T08:24:23.405Z,20.9
2017-08-12T08:25:31.493Z,20.9
2017-08-12T08:26:39.581Z,20.9
2017-08-12T08:27:47.670Z,20.9
2017-08-12T08:28:56.108Z,20.9
2017-08-12T08:30:03.923Z,20.9
2017-08-12T08:31:12.030Z,20.9
2017-08-12T08:32:20.583Z,20.9
2017-08-12T08:33:28.516Z,20.9
2017-08-12T08:34:36.247Z,20.9
2017-08-12T08:35:44.287Z,20.9
2017-08-12T08:36:52.445Z,20.9
2017-08-12T08:38:00.460Z,20.9
2017-08-12T08:39:08.545Z,20.9
2017-08-12T08:40:16.635Z,20.9
2017-08-12T08:41:24.720Z,20.9
2017-08-12T08:42:32.815Z,20.9
2017-08-12T08:43:40.905Z,20.9
2017-08-12T08:44:48.990Z,20.9
2017-08-12T08:45:57.097Z,20.9
2017-08-12T08:47:05.164Z,20.9
2017-08-12T08:48:13.253Z,20.9
2017-08-12T08:49:21.338Z,20.9
2017-08-12T08:50:29.760Z,20.9
2017-08-12T08:51:37.957Z,20.8
2017-08-12T08:52:45.608Z,20.8
2017-08-12T08:53:53.693Z,20.8
2017-08-12T08:55:01.771Z,20.9
2017-08-12T08:56:09.858Z,20.9
2017-08-12T08:57:17.949Z,20.9
2017-08-12T08:58:26.055Z,20.9
2017-08-12T08:59:34.127Z,20.9
2017-08-12T09:00:42.205Z,20.9
2017-08-12T09:01:50.301Z,20.9
2017-08-12T09:02:58.386Z,20.9
2017-08-12T09:04:06.468Z,20.9
2017-08-12T09:05:14.553Z,20.9
2017-08-12T09:06:22.641Z,20.9
2017-08-12T09:07:30.727Z,20.9
2017-08-12T09:08:38.815Z,20.9
2017-08-12T09:09:46.902Z,20.9
2017-08-12T09:10:54.986Z,20.9
2017-08-12T09:12:03.073Z,20.9
2017-08-12T09:13:11.161Z,20.9
2017-08-12T09:14:19.247Z,20.9
2017-08-12T09:15:27.345Z,20.9
2017-08-12T09:16:35.431Z,20.9
2017-08-12T09:17:43.518Z,20.9
2017-08-12T09:18:51.604Z,20.8
2017-08-12T09:19:59.692Z,20.9
2017-08-12T09:21:07.777Z,20.9
2017-08-12T09:22:15.866Z,20.9
2017-08-12T09:23:23.953Z,20.8
2017-08-12T09:24:32.042Z,20.8
2017-08-12T09:25:40.136Z,20.8
2017-08-12T09:26:48.213Z,20.9
2017-08-12T09:27:56.300Z,20.8
2017-08-12T09:29:04.384Z,20.8
2017-08-12T09:30:12.474Z,20.8
2017-08-12T09:31:20.558Z,20.8
2017-08-12T09:32:28.648Z,20.9
2017-08-12T09:33:36.735Z,20.9
2017-08-12T09:34:44.823Z,20.9
2017-08-12T09:35:52.910Z,20.9
2017-08-12T09:37:01.047Z,20.8
2017-08-12T09:38:09.082Z,20.9
2017-08-12T09:39:17.168Z,20.8
2017-08-12T09:40:25.255Z,20.9
2017-08-12T09:41:33.351Z,20.8
2017-08-12T09:42:41.435Z,20.9
2017-08-12T09:43:49.562Z,20.8
2017-08-12T09:44:57.613Z,20.8
2017-08-12T09:46:05.702Z,20.8
2017-08-12T09:47:13.792Z,20.8
2017-08-12T09:48:21.874Z,20.8
2017-08-12T09:49:30.080Z,20.8
2017-08-12T09:50:38.049Z,20.8
2017-08-12T09:51:46.141Z,20.9
2017-08-12T09:52:54.226Z,20.8
2017-08-12T09:54:02.312Z,20.9
2017-08-12T09:55:10.397Z,20.9
2017-08-12T09:56:18.485Z,20.9
2017-08-12T09:57:26.572Z,20.8
2017-08-12T09:58:34.659Z,20.9
2017-08-12T09:59:42.748Z,20.9
2017-08-12T10:00:50.836Z,20.9
2017-08-12T10:01:58.928Z,20.9
2017-08-12T10:03:07.011Z,20.9
2017-08-12T10:04:15.106Z,20.9
2017-08-12T10:05:23.184Z,20.9
2017-08-12T10:06:31.278Z,20.9
2017-08-12T10:07:39.363Z,20.9
2017-08-12T10:08:47.445Z,20.9
2017-08-12T10:09:55.535Z,20.9
2017-08-12T10:11:03.621Z,20.8
2017-08-12T10:12:11.707Z,20.9
2017-08-12T10:13:19.794Z,20.9
2017-08-12T10:14:27.915Z,20.9
2017-08-12T10:15:35.977Z,20.9
2017-08-12T10:16:44.057Z,20.9
2017-08-12T10:17:52.145Z,20.9
2017-08-12T10:19:00.234Z,20.9
2017-08-12T10:20:08.339Z,20.9
2017-08-12T10:21:16.410Z,20.9
2017-08-12T10:22:24.496Z,20.9
2017-08-12T10:23:32.581Z,20.9
2017-08-12T10:24:40.667Z,20.9
2017-08-12T10:25:48.756Z,20.9
2017-08-12T10:26:56.841Z,20.9
2017-08-12T10:28:04.930Z,20.9
2017-08-12T10:29:13.027Z,20.9
2017-08-12T10:30:21.115Z,20.9
2017-08-12T10:31:29.202Z,20.9
2017-08-12T10:32:37.293Z,20.9
2017-08-12T10:33:45.375Z,20.9
2017-08-12T10:34:53.460Z,20.9
2017-08-12T10:36:01.550Z,20.9
2017-08-12T10:37:09.637Z,20.9
2017-08-12T10:38:17.723Z,20.9
2017-08-12T10:39:25.812Z,20.9
2017-08-12T10:40:33.900Z,20.9
2017-08-12T10:41:41.983Z,20.9
2017-08-12T10:42:50.069Z,20.9
2017-08-12T10:43:58.157Z,20.9
2017-08-12T10:45:06.244Z,20.9
2017-08-12T10:46:14.336Z,20.9
2017-08-12T10:47:22.420Z,20.9
2017-08-12T10:48:30.505Z,20.9
2017-08-12T10:49:38.593Z,20.9
2017-08-12T10:50:46.680Z,20.9
2017-08-12T10:51:54.776Z,20.9
2017-08-12T10:53:02.862Z,20.9
2017-08-12T10:54:10.965Z,20.9
2017-08-12T10:55:19.052Z,20.9
2017-08-12T10:56:27.138Z,20.9
2017-08-12T10:57:35.222Z,20.9
2017-08-12T10:58:43.310Z,20.9
2017-08-12T10:59:51.397Z,20.9
2017-08-12T11:00:59.489Z,20.9
2017-08-12T11:02:07.581Z,20.9
2017-08-12T11:03:15.660Z,20.9
2017-08-12T11:04:23.747Z,20.9
2017-08-12T11:05:31.834Z,20.9
2017-08-12T11:06:39.951Z,20.9
2017-08-12T11:07:48.014Z,20.9
2017-08-12T11:08:56.116Z,20.9
2017-08-12T11:10:04.194Z,20.9
2017-08-12T11:11:12.284Z,20.9
2017-08-12T11:12:20.373Z,20.9
2017-08-12T11:13:28.458Z,20.9
2017-08-12T11:14:36.546Z,20.9
2017-08-12T11:15:44.631Z,20.9
2017-08-12T11:16:52.742Z,20.9
2017-08-12T11:18:00.806Z,20.9
2017-08-12T11:19:08.895Z,20.9
2017-08-12T11:20:16.988Z,20.9
2017-08-12T11:21:25.071Z,20.9
2017-08-12T11:22:33.200Z,20.9
2017-08-12T11:23:41.251Z,20.9
2017-08-12T11:24:49.328Z,20.9
2017-08-12T11:25:57.418Z,20.9
2017-08-12T11:27:05.637Z,20.9
2017-08-12T11:28:13.605Z,20.9
2017-08-12T11:29:21.692Z,20.9
2017-08-12T11:30:29.778Z,20.9
2017-08-12T11:31:37.875Z,20.9
2017-08-12T11:32:45.961Z,20.9
2017-08-12T11:33:54.051Z,20.9
2017-08-12T11:35:02.136Z,20.9
2017-08-12T11:36:10.545Z,20.9
2017-08-12T11:37:18.313Z,20.9
2017-08-12T11:38:26.397Z,21.0
2017-08-12T11:39:34.484Z,20.9
2017-08-12T11:40:42.571Z,20.9
2017-08-12T11:41:50.660Z,20.9
2017-08-12T11:42:58.747Z,20.9
2017-08-12T11:44:06.835Z,20.9
2017-08-12T11:45:14.929Z,20.9
2017-08-12T11:46:23.115Z,20.9
2017-08-12T11:47:31.239Z,20.9
2017-08-12T11:48:39.196Z,20.9
2017-08-12T11:49:47.274Z,20.9
2017-08-12T11:50:57.886Z,20.9
2017-08-12T11:52:03.570Z,20.9
2017-08-12T11:53:11.641Z,20.9
2017-08-12T11:54:19.632Z,20.9
2017-08-12T11:55:27.719Z,20.9
2017-08-12T11:56:35.797Z,20.9
2017-08-12T11:57:43.890Z,21.0
2017-08-12T11:58:52.408Z,20.9
2017-08-12T12:00:00.066Z,20.9
2017-08-12T12:01:08.156Z,20.9
2017-08-12T12:02:16.243Z,21.0
2017-08-12T12:03:24.410Z,20.9
2017-08-12T12:04:32.416Z,20.9
2017-08-12T12:05:40.503Z,20.9
2017-08-12T12:06:48.683Z,20.9
2017-08-12T12:07:56.769Z,20.9
2017-08-12T12:09:04.766Z,20.9
2017-08-12T12:10:12.973Z,20.9
2017-08-12T12:11:20.941Z,20.9
2017-08-12T12:12:29.025Z,21.0
2017-08-12T12:13:37.114Z,21.0
2017-08-12T12:14:45.197Z,20.9
2017-08-12T12:15:53.294Z,20.9
2017-08-12T12:17:01.382Z,20.9
2017-08-12T12:18:09.462Z,21.0
2017-08-12T12:19:17.560Z,21.0
2017-08-12T12:20:25.645Z,20.9
2017-08-12T12:21:33.726Z,20.9
2017-08-12T12:22:41.818Z,20.9
2017-08-12T12:23:49.996Z,21.0
2017-08-12T12:24:58.085Z,21.0
2017-08-12T12:26:06.177Z,20.9
2017-08-12T12:27:14.292Z,21.0
2017-08-12T12:28:22.358Z,20.9
2017-08-12T12:29:30.448Z,21.0
2017-08-12T12:30:38.547Z,20.9
2017-08-12T12:31:46.722Z,21.0
2017-08-12T12:32:54.622Z,21.0
2017-08-12T12:34:02.713Z,21.0
2017-08-12T12:35:10.795Z,21.0
2017-08-12T12:36:18.886Z,21.0
2017-08-12T12:37:26.970Z,21.0
2017-08-12T12:38:35.057Z,20.9
2017-08-12T12:39:43.791Z,21.0
2017-08-12T12:40:51.232Z,21.0
2017-08-12T12:41:59.319Z,21.0
2017-08-12T12:43:07.407Z,21.1
2017-08-12T12:44:15.492Z,20.9
2017-08-12T12:45:23.581Z,21.1
2017-08-12T12:46:31.668Z,21.0
2017-08-12T12:47:39.760Z,20.9
2017-08-12T12:48:47.842Z,21.0
2017-08-12T12:49:55.930Z,21.1
2017-08-12T12:51:04.018Z,21.0
2017-08-12T12:52:12.152Z,20.9
2017-08-12T12:53:20.196Z,21.0
2017-08-12T12:54:28.278Z,20.9
2017-08-12T12:55:36.365Z,21.1
2017-08-12T12:56:44.453Z,21.0
2017-08-12T12:57:52.562Z,21.0
2017-08-12T12:59:00.627Z,21.0
2017-08-12T13:00:08.712Z,21.0
2017-08-12T13:01:16.801Z,20.9
2017-08-12T13:02:24.886Z,21.0
2017-08-12T13:03:32.975Z,21.0
2017-08-12T13:04:41.063Z,20.9
2017-08-12T13:05:49.150Z,20.9
2017-08-12T13:06:57.241Z,20.9
2017-08-12T13:08:05.329Z,20.9
2017-08-12T13:09:13.417Z,20.9
2017-08-12T13:10:21.504Z,20.9
2017-08-12T13:11:29.590Z,21.0
2017-08-12T13:12:37.680Z,20.9
2017-08-12T13:13:45.766Z,21.1
2017-08-12T13:14:53.853Z,21.0
2017-08-12T13:16:02.100Z,20.9
2017-08-12T13:17:10.030Z,20.9
2017-08-12T13:18:18.182Z,20.9
2017-08-12T13:19:26.202Z,20.9
2017-08-12T13:20:34.289Z,21.0
2017-08-12T13:21:42.374Z,20.9
2017-08-12T13:22:50.464Z,20.9
2017-08-12T13:23:58.549Z,20.9
2017-08-12T13:25:06.640Z,20.9
2017-08-12T13:26:14.723Z,20.9
2017-08-12T13:27:22.811Z,21.0
2017-08-12T13:28:30.902Z,20.9
2017-08-12T13:29:39.001Z,20.9
2017-08-12T13:30:47.088Z,21.0
2017-08-12T13:31:55.171Z,20.9
2017-08-12T13:33:03.507Z,21.0
2017-08-12T13:34:11.346Z,20.9
2017-08-12T13:35:19.436Z,20.9
2017-08-12T13:36:27.522Z,21.0
2017-08-12T13:37:35.650Z,21.0
2017-08-12T13:38:43.696Z,20.9
2017-08-12T13:39:51.783Z,20.9
2017-08-12T13:40:59.871Z,20.9
2017-08-12T13:42:07.963Z,20.9
2017-08-12T13:43:16.047Z,20.9
2017-08-12T13:44:24.131Z,20.9
2017-08-12T13:45:32.219Z,20.9
2017-08-12T13:46:40.307Z,21.0
2017-08-12T13:47:48.395Z,21.0
2017-08-12T13:48:56.481Z,20.9
2017-08-12T13:50:04.569Z,20.9
2017-08-12T13:51:12.658Z,20.9
2017-08-12T13:52:20.741Z,20.9
2017-08-12T13:53:28.829Z,20.9
2017-08-12T13:54:36.916Z,21.0
2017-08-12T13:55:45.004Z,20.9
2017-08-12T13:56:53.091Z,21.0
2017-08-12T13:58:01.179Z,20.9
2017-08-12T13:59:09.266Z,21.0
2017-08-12T14:00:17.360Z,20.9
2017-08-12T14:01:25.445Z,21.0
2017-08-12T14:02:33.534Z,21.1
2017-08-12T14:03:41.622Z,21.0
2017-08-12T14:04:49.717Z,21.0
2017-08-12T14:05:57.795Z,21.0
2017-08-12T14:07:05.882Z,20.9
2017-08-12T14:08:13.967Z,21.0
2017-08-12T14:09:22.062Z,21.0
2017-08-12T14:10:30.161Z,21.0
2017-08-12T14:11:38.246Z,21.1
2017-08-12T14:12:46.334Z,21.0
2017-08-12T14:13:54.421Z,21.0
2017-08-12T14:15:02.525Z,21.0
2017-08-12T14:16:10.595Z,21.0
2017-08-12T14:17:18.689Z,21.0
2017-08-12T14:18:26.771Z,21.0
2017-08-12T14:19:34.856Z,21.0
2017-08-12T14:20:42.944Z,20.9
2017-08-12T14:21:51.032Z,21.0
2017-08-12T14:22:59.120Z,21.0
2017-08-12T14:24:07.212Z,21.0
2017-08-12T14:25:15.294Z,21.1
2017-08-12T14:26:23.380Z,21.0
2017-08-12T14:27:31.466Z,21.1
2017-08-12T14:28:39.563Z,21.0
2017-08-12T14:29:47.738Z,21.0
2017-08-12T14:30:55.726Z,21.0
2017-08-12T14:32:03.815Z,21.1
2017-08-12T14:33:11.905Z,21.1
2017-08-12T14:34:19.991Z,20.9
2017-08-12T14:35:28.140Z,21.1
2017-08-12T14:36:36.166Z,21.1
2017-08-12T14:37:44.250Z,21.0
2017-08-12T14:38:52.339Z,21.0
2017-08-12T14:40:00.424Z,21.0
2017-08-12T14:41:08.513Z,21.0
2017-08-12T14:42:16.600Z,21.0
2017-08-12T14:43:24.687Z,21.1
2017-08-12T14:44:32.776Z,21.0
2017-08-12T14:45:40.866Z,21.1
2017-08-12T14:46:48.955Z,21.1
2017-08-12T14:47:57.037Z,21.0
2017-08-12T14:49:05.123Z,21.0
2017-08-12T14:50:13.214Z,20.9
2017-08-12T14:51:21.300Z,21.0
2017-08-12T14:52:29.385Z,21.0
2017-08-12T14:53:37.472Z,21.1
2017-08-12T14:54:45.559Z,21.1
2017-08-12T14:55:53.658Z,21.1
2017-08-12T14:57:01.734Z,21.0
2017-08-12T14:58:09.822Z,21.0
2017-08-12T14:59:17.905Z,21.0
2017-08-12T15:00:25.994Z,21.0
2017-08-12T15:01:34.081Z,21.0
2017-08-12T15:02:42.170Z,21.0
2017-08-12T15:03:50.257Z,21.0
2017-08-12T15:04:58.344Z,21.0
2017-08-12T15:06:06.429Z,21.1